createdAt,value
2018-03-03T00:00:29.846Z,51.58
2018-03-03T00:02:58.377Z,51.63
2018-03-03T00:05:26.636Z,51.61
2018-03-03T00:07:53.742Z,51.58
2018-03-03T00:10:20.840Z,51.57
2018-03-03T00:12:49.760Z,51.55
2018-03-03T00:15:16.908Z,51.57
2018-03-03T00:17:44.778Z,51.60
2018-03-03T00:20:12.639Z,51.56
2018-03-03T00:22:40.900Z,51.55
2018-03-03T00:25:09.118Z,51.58
2018-03-03T00:27:37.000Z,51.54
2018-03-03T00:30:05.605Z,51.57
2018-03-03T00:32:33.106Z,51.53
2018-03-03T00:35:01.321Z,51.53
2018-03-03T00:37:30.078Z,51.58
2018-03-03T00:39:57.569Z,51.60
2018-03-03T00:42:24.645Z,51.52
2018-03-03T00:44:51.721Z,51.55
2018-03-03T00:47:18.824Z,51.54
2018-03-03T00:49:47.042Z,51.53
2018-03-03T00:52:14.117Z,51.53
2018-03-03T00:54:41.233Z,51.54
2018-03-03T00:57:09.088Z,51.51
2018-03-03T00:59:36.943Z,51.55
2018-03-03T01:02:05.158Z,51.55
2018-03-03T01:04:32.253Z,51.55
2018-03-03T01:07:00.118Z,51.53
2018-03-03T01:09:27.976Z,51.55
2018-03-03T01:11:55.055Z,51.56
2018-03-03T01:14:22.907Z,51.54
2018-03-03T01:16:51.126Z,51.54
2018-03-03T01:19:19.342Z,51.55
2018-03-03T01:21:47.554Z,51.55
2018-03-03T01:24:14.625Z,51.54
2018-03-03T01:26:41.714Z,51.54
2018-03-03T01:29:09.185Z,51.53
2018-03-03T01:31:37.031Z,51.50
2018-03-03T01:34:05.246Z,51.50
2018-03-03T01:36:32.348Z,51.54
2018-03-03T01:38:59.425Z,51.50
2018-03-03T01:41:26.932Z,51.49
2018-03-03T01:43:54.052Z,51.49
2018-03-03T01:46:21.149Z,51.50
2018-03-03T01:48:49.766Z,51.49
2018-03-03T01:51:16.897Z,51.50
2018-03-03T01:53:45.238Z,51.49
2018-03-03T01:56:13.960Z,51.49
2018-03-03T01:58:41.062Z,51.49
2018-03-03T02:01:09.291Z,51.48
2018-03-03T02:03:37.530Z,51.54
2018-03-03T02:06:05.756Z,51.53
2018-03-03T02:08:34.012Z,51.48
2018-03-03T02:11:01.875Z,51.48
2018-03-03T02:13:28.986Z,51.48
2018-03-03T02:15:56.844Z,51.47
2018-03-03T02:18:24.998Z,51.49
2018-03-03T02:20:52.864Z,51.48
2018-03-03T02:23:20.748Z,51.51
2018-03-03T02:25:47.825Z,51.48
2018-03-03T02:28:14.951Z,51.49
2018-03-03T02:30:42.831Z,51.48
2018-03-03T02:33:10.738Z,51.48
2018-03-03T02:35:37.825Z,51.49
2018-03-03T02:38:04.948Z,51.55
2018-03-03T02:40:32.815Z,51.51
2018-03-03T02:42:59.937Z,51.49
2018-03-03T02:45:27.839Z,51.51
2018-03-03T02:47:55.701Z,51.51
2018-03-03T02:50:23.931Z,51.51
2018-03-03T02:52:51.812Z,51.50
2018-03-03T02:55:18.895Z,51.51
2018-03-03T02:57:47.745Z,51.50
2018-03-03T03:00:14.845Z,51.49
2018-03-03T03:02:41.965Z,51.49
2018-03-03T03:05:09.808Z,51.48
2018-03-03T03:07:36.906Z,51.45
2018-03-03T03:10:05.646Z,51.49
2018-03-03T03:12:32.740Z,51.50
2018-03-03T03:14:59.820Z,51.51
2018-03-03T03:17:27.712Z,51.50
2018-03-03T03:19:54.794Z,51.49
2018-03-03T03:22:21.888Z,51.46
2018-03-03T03:24:48.975Z,51.51
2018-03-03T03:27:17.199Z,51.51
2018-03-03T03:29:45.437Z,51.47
2018-03-03T03:32:13.649Z,51.48
2018-03-03T03:34:42.406Z,51.45
2018-03-03T03:37:09.907Z,51.50
2018-03-03T03:39:38.665Z,51.53
2018-03-03T03:42:06.579Z,51.44
2018-03-03T03:44:34.798Z,51.47
2018-03-03T03:47:03.009Z,51.48
2018-03-03T03:49:30.862Z,51.47
2018-03-03T03:51:57.934Z,51.45
2018-03-03T03:54:25.012Z,51.45
2018-03-03T03:56:52.868Z,51.52
2018-03-03T03:59:21.455Z,51.47
2018-03-03T04:01:48.923Z,51.47
2018-03-03T04:04:17.659Z,51.51
2018-03-03T04:06:45.152Z,51.46
2018-03-03T04:09:13.367Z,51.51
2018-03-03T04:11:42.089Z,51.49
2018-03-03T04:14:09.575Z,51.51
2018-03-03T04:16:37.804Z,51.50
2018-03-03T04:19:04.901Z,51.49
2018-03-03T04:21:31.990Z,51.51
2018-03-03T04:23:59.495Z,51.49
2018-03-03T04:26:27.728Z,51.49
2018-03-03T04:28:55.949Z,51.48
2018-03-03T04:31:23.803Z,51.52
2018-03-03T04:33:50.901Z,51.52
2018-03-03T04:36:18.009Z,51.49
2018-03-03T04:38:45.486Z,51.49
2018-03-03T04:41:12.589Z,51.49
2018-03-03T04:43:39.684Z,51.50
2018-03-03T04:46:07.912Z,51.48
2018-03-03T04:48:35.023Z,51.47
2018-03-03T04:51:03.271Z,51.49
2018-03-03T04:53:31.512Z,51.50
2018-03-03T04:55:59.737Z,51.49
2018-03-03T05:01:38.707Z,51.49
2018-03-03T05:04:09.704Z,51.49
2018-03-03T05:06:38.309Z,51.52
2018-03-03T05:09:05.788Z,51.50
2018-03-03T05:11:34.023Z,51.51
2018-03-03T05:14:12.961Z,51.50
2018-03-03T05:19:50.758Z,51.50
2018-03-03T05:22:24.588Z,51.53
2018-03-03T05:24:58.738Z,51.52
2018-03-03T05:30:40.665Z,51.53
2018-03-03T05:33:14.448Z,51.52
2018-03-03T05:35:57.213Z,51.54
2018-03-03T05:38:31.431Z,51.57
2018-03-03T05:44:11.217Z,51.54
2018-03-03T05:46:39.075Z,51.52
2018-03-03T05:49:24.654Z,51.54
2018-03-03T05:52:10.032Z,51.55
2018-03-03T05:54:42.877Z,51.54
2018-03-03T06:00:25.485Z,51.53
2018-03-03T06:03:08.793Z,51.55
2018-03-03T06:05:42.627Z,51.55
2018-03-03T06:08:12.623Z,51.55
2018-03-03T06:10:41.358Z,51.56
2018-03-03T06:13:10.442Z,51.54
2018-03-03T06:15:38.296Z,51.56
2018-03-03T06:18:05.802Z,51.52
2018-03-03T06:20:34.036Z,51.56
2018-03-03T06:23:01.152Z,51.54
2018-03-03T06:25:29.007Z,51.56
2018-03-03T06:27:56.120Z,51.55
2018-03-03T06:30:24.863Z,51.54
2018-03-03T06:32:51.961Z,51.54
2018-03-03T06:35:20.722Z,51.56
2018-03-03T06:37:47.821Z,51.56
2018-03-03T06:40:16.555Z,51.56
2018-03-03T06:42:45.185Z,51.56
2018-03-03T06:45:13.030Z,51.55
2018-03-03T06:47:41.264Z,51.56
2018-03-03T06:50:09.165Z,51.55
2018-03-03T06:52:36.288Z,51.55
2018-03-03T06:55:03.375Z,51.55
2018-03-03T06:57:31.217Z,51.56
2018-03-03T06:59:59.071Z,51.56
2018-03-03T07:02:26.932Z,51.55
2018-03-03T07:04:54.015Z,51.55
2018-03-03T07:07:21.089Z,51.54
2018-03-03T07:09:49.319Z,51.56
2018-03-03T07:12:17.169Z,51.55
2018-03-03T07:17:47.473Z,51.56
2018-03-03T07:20:14.946Z,51.55
2018-03-03T07:22:43.181Z,51.55
2018-03-03T07:25:11.044Z,51.56
2018-03-03T07:27:38.924Z,51.55
2018-03-03T07:30:07.142Z,51.55
2018-03-03T07:32:34.990Z,51.56
2018-03-03T07:35:02.086Z,51.56
2018-03-03T07:37:29.170Z,51.56
2018-03-03T07:39:57.032Z,51.57
2018-03-03T07:42:25.288Z,51.55
2018-03-03T07:44:53.152Z,51.55
2018-03-03T07:47:21.367Z,51.56
2018-03-03T07:49:49.585Z,51.56
2018-03-03T07:52:17.053Z,51.57
2018-03-03T07:54:44.130Z,51.57
2018-03-03T07:57:11.977Z,51.58
2018-03-03T07:59:39.073Z,51.57
2018-03-03T08:02:07.285Z,51.59
2018-03-03T08:04:35.501Z,51.57
2018-03-03T08:07:03.733Z,51.56
2018-03-03T08:09:31.209Z,51.58
2018-03-03T08:11:58.303Z,51.57
2018-03-03T08:14:25.379Z,51.57
2018-03-03T08:16:54.131Z,51.58
2018-03-03T08:19:21.610Z,51.58
2018-03-03T08:21:49.839Z,51.59
2018-03-03T08:24:16.924Z,51.57
2018-03-03T08:26:44.015Z,51.59
2018-03-03T08:29:11.500Z,51.55
2018-03-03T08:31:39.347Z,51.57
2018-03-03T08:34:07.593Z,51.59
2018-03-03T08:36:35.810Z,51.59
2018-03-03T08:39:02.890Z,51.59
2018-03-03T08:41:30.734Z,51.58
2018-03-03T08:43:57.890Z,51.58
2018-03-03T08:46:25.734Z,51.59
2018-03-03T08:48:53.617Z,51.59
2018-03-03T08:51:21.878Z,51.58
2018-03-03T08:53:50.136Z,51.57
2018-03-03T08:56:17.216Z,51.57
2018-03-03T08:58:45.091Z,51.58
2018-03-03T09:01:13.324Z,51.54
2018-03-03T09:03:41.190Z,51.50
2018-03-03T09:06:09.043Z,51.56
2018-03-03T09:08:37.282Z,51.52
2018-03-03T09:11:04.380Z,51.39
2018-03-03T09:13:33.142Z,51.35
2018-03-03T09:16:01.378Z,51.36
2018-03-03T09:18:29.270Z,51.40
2018-03-03T09:20:57.114Z,51.36
2018-03-03T09:23:24.194Z,51.40
2018-03-03T09:25:52.054Z,51.38
2018-03-03T09:28:19.130Z,51.35
2018-03-03T09:30:47.346Z,51.40
2018-03-03T09:33:14.836Z,51.35
2018-03-03T09:35:41.917Z,51.34
2018-03-03T09:38:09.020Z,51.41
2018-03-03T09:40:37.237Z,51.42
2018-03-03T09:43:05.115Z,51.43
2018-03-03T09:45:32.335Z,51.43
2018-03-03T09:47:59.443Z,51.41
2018-03-03T09:50:27.324Z,51.39
2018-03-03T09:52:55.228Z,51.44
2018-03-03T09:55:23.466Z,51.43
2018-03-03T09:57:51.337Z,51.43
2018-03-03T10:00:19.199Z,51.44
2018-03-03T10:02:47.476Z,51.44
2018-03-03T10:05:16.089Z,51.43
2018-03-03T10:07:44.170Z,51.43
2018-03-03T10:10:11.660Z,51.45
2018-03-03T10:12:39.927Z,51.44
2018-03-03T10:15:07.797Z,51.42
2018-03-03T10:17:34.882Z,51.43
2018-03-03T10:20:03.620Z,51.45
2018-03-03T10:22:30.719Z,51.46
2018-03-03T10:24:59.339Z,51.44
2018-03-03T10:27:27.229Z,51.47
2018-03-03T10:29:55.994Z,51.46
2018-03-03T10:32:23.085Z,51.46
2018-03-03T10:34:51.331Z,51.49
2018-03-03T10:37:19.193Z,51.52
2018-03-03T10:39:47.695Z,51.49
2018-03-03T10:42:15.178Z,51.47
2018-03-03T10:44:43.405Z,51.46
2018-03-03T10:47:11.268Z,51.48
2018-03-03T10:49:39.510Z,51.46
2018-03-03T10:52:07.462Z,51.46
2018-03-03T10:54:35.684Z,51.49
2018-03-03T10:57:02.757Z,51.47
2018-03-03T10:59:29.860Z,51.47
2018-03-03T11:01:57.352Z,51.48
2018-03-03T11:04:25.586Z,51.47
2018-03-03T11:06:54.175Z,51.47
2018-03-03T11:09:21.647Z,51.49
2018-03-03T11:11:49.863Z,51.49
2018-03-03T11:14:18.101Z,51.45
2018-03-03T11:16:46.313Z,51.45
2018-03-03T11:19:13.415Z,51.58
2018-03-03T11:21:41.258Z,51.69
2018-03-03T11:24:09.494Z,51.80
2018-03-03T11:26:37.352Z,51.89
2018-03-03T11:29:05.215Z,51.97
2018-03-03T11:31:32.307Z,52.06
2018-03-03T11:33:59.396Z,52.18
2018-03-03T11:36:27.256Z,52.29
2018-03-03T11:38:54.342Z,52.41
2018-03-03T11:41:22.195Z,52.48
2018-03-03T11:43:50.411Z,52.43
2018-03-03T11:46:18.335Z,52.46
2018-03-03T11:48:45.409Z,52.53
2018-03-03T11:51:13.257Z,52.51
2018-03-03T11:53:40.333Z,52.56
2018-03-03T11:56:08.192Z,52.68
2018-03-03T11:58:35.289Z,52.63
2018-03-03T12:01:04.013Z,52.63
2018-03-03T12:03:31.502Z,52.71
2018-03-03T12:05:59.432Z,52.74
2018-03-03T12:08:28.035Z,52.89
2018-03-03T12:10:55.156Z,52.90
2018-03-03T12:13:22.647Z,52.94
2018-03-03T12:15:51.387Z,52.98
2018-03-03T12:18:19.244Z,53.04
2018-03-03T12:20:47.453Z,53.08
2018-03-03T12:23:15.298Z,53.14
2018-03-03T12:25:43.523Z,53.30
2018-03-03T12:28:11.388Z,53.30
2018-03-03T12:30:39.615Z,53.40
2018-03-03T12:33:07.849Z,53.37
2018-03-03T12:35:36.076Z,53.42
2018-03-03T12:38:03.941Z,53.49
2018-03-03T12:40:32.159Z,53.42
2018-03-03T12:42:59.253Z,53.58
2018-03-03T12:45:27.481Z,53.71
2018-03-03T12:47:55.351Z,53.67
2018-03-03T12:50:22.443Z,51.07
2018-03-03T12:52:50.314Z,52.77
2018-03-03T12:55:18.154Z,53.02
2018-03-03T12:57:46.904Z,53.01
2018-03-03T13:00:15.509Z,52.97
2018-03-03T13:02:44.133Z,52.92
2018-03-03T13:05:11.997Z,52.98
2018-03-03T13:07:39.483Z,52.94
2018-03-03T13:10:07.325Z,52.93
2018-03-03T13:12:35.975Z,52.99
2018-03-03T13:15:04.094Z,52.98
2018-03-03T13:17:31.957Z,52.97
2018-03-03T13:19:59.039Z,52.96
2018-03-03T13:22:26.136Z,52.94
2018-03-03T13:24:53.628Z,52.92
2018-03-03T13:27:21.488Z,52.87
2018-03-03T13:29:49.705Z,52.99
2018-03-03T13:32:17.932Z,52.96
2018-03-03T13:34:46.151Z,52.95
2018-03-03T13:37:14.362Z,52.89
2018-03-03T13:39:41.461Z,52.88
2018-03-03T13:42:09.306Z,52.85
2018-03-03T13:44:36.386Z,52.88
2018-03-03T13:47:03.480Z,52.83
2018-03-03T13:49:30.558Z,52.82
2018-03-03T13:51:57.636Z,52.82
2018-03-03T13:54:25.500Z,52.84
2018-03-03T13:56:53.733Z,52.83
2018-03-03T13:59:20.810Z,52.82
2018-03-03T14:01:47.894Z,52.85
2018-03-03T14:04:16.482Z,52.83
2018-03-03T14:06:43.581Z,52.87
2018-03-03T14:09:11.425Z,52.82
2018-03-03T14:11:38.502Z,52.89
2018-03-03T14:14:06.351Z,52.82
2018-03-03T14:16:33.443Z,52.87
2018-03-03T14:19:01.293Z,52.84
2018-03-03T14:21:31.373Z,52.88
2018-03-03T14:23:59.699Z,52.89
2018-03-03T14:26:27.540Z,52.91
2018-03-03T14:28:55.754Z,52.87
2018-03-03T14:31:23.914Z,52.89
2018-03-03T14:33:51.434Z,52.92
2018-03-03T14:36:18.522Z,52.94
2018-03-03T14:38:45.612Z,52.98
2018-03-03T14:41:13.474Z,52.92
2018-03-03T14:43:41.694Z,52.94
2018-03-03T14:46:09.560Z,52.92
2018-03-03T14:48:38.295Z,52.91
2018-03-03T14:51:05.520Z,52.90
2018-03-03T14:53:34.136Z,52.95
2018-03-03T14:56:02.350Z,52.92
2018-03-03T14:58:29.454Z,52.94
2018-03-03T15:00:58.055Z,52.92
2018-03-03T15:03:25.664Z,52.96
2018-03-03T15:05:53.877Z,52.98
2018-03-03T15:08:22.495Z,52.98
2018-03-03T15:10:49.984Z,52.97
2018-03-03T15:13:17.149Z,52.98
2018-03-03T15:15:44.257Z,52.96
2018-03-03T15:18:11.923Z,52.99
2018-03-03T15:20:40.808Z,53.01
2018-03-03T15:23:07.906Z,53.00
2018-03-03T15:25:36.121Z,52.99
2018-03-03T15:28:04.690Z,52.98
2018-03-03T15:30:33.430Z,53.02
2018-03-03T15:33:00.541Z,53.03
2018-03-03T15:35:28.313Z,53.04
2018-03-03T15:37:57.845Z,53.04
2018-03-03T15:40:26.588Z,53.05
2018-03-03T15:42:54.403Z,53.06
2018-03-03T15:45:23.005Z,53.05
2018-03-03T15:47:52.377Z,53.06
2018-03-03T15:50:20.195Z,53.05
2018-03-03T15:52:49.160Z,53.06
2018-03-03T15:55:17.894Z,53.08
2018-03-03T15:57:47.634Z,53.11
2018-03-03T16:00:16.221Z,53.13
2018-03-03T16:02:45.568Z,53.14
2018-03-03T16:05:14.030Z,53.15
2018-03-03T16:07:42.098Z,53.20
2018-03-03T16:10:11.017Z,53.14
2018-03-03T16:12:40.445Z,53.13
2018-03-03T16:15:07.754Z,53.11
2018-03-03T16:17:36.760Z,53.12
2018-03-03T16:20:04.642Z,53.11
2018-03-03T16:22:32.213Z,53.12
2018-03-03T16:25:00.189Z,53.10
2018-03-03T16:27:29.407Z,53.11
2018-03-03T16:29:57.023Z,53.11
2018-03-03T16:32:26.498Z,53.09
2018-03-03T16:34:54.477Z,53.11
2018-03-03T16:37:22.869Z,53.12
2018-03-03T16:39:50.337Z,53.12
2018-03-03T16:42:17.911Z,53.13
2018-03-03T16:44:46.303Z,53.15
2018-03-03T16:47:13.669Z,53.11
2018-03-03T16:49:41.541Z,53.14
2018-03-03T16:52:09.771Z,53.15
2018-03-03T16:54:37.628Z,53.14
2018-03-03T16:57:06.366Z,53.16
2018-03-03T16:59:33.452Z,53.16
2018-03-03T17:02:00.925Z,53.17
2018-03-03T17:04:28.119Z,53.17
2018-03-03T17:06:55.231Z,53.17
2018-03-03T17:09:22.427Z,53.18
2018-03-03T17:11:50.675Z,53.20
2018-03-03T17:14:17.875Z,53.18
2018-03-03T17:16:45.412Z,53.16
2018-03-03T17:19:12.499Z,53.20
2018-03-03T17:21:40.412Z,53.20
2018-03-03T17:24:07.581Z,53.22
2018-03-03T17:26:34.674Z,53.22
2018-03-03T17:29:01.772Z,53.22
2018-03-03T17:31:29.982Z,53.22
2018-03-03T17:33:58.198Z,53.23
2018-03-03T17:36:26.433Z,53.23
2018-03-03T17:38:53.510Z,53.23
2018-03-03T17:41:21.477Z,53.25
2018-03-03T17:43:49.897Z,53.24
2018-03-03T17:46:17.756Z,53.24
2018-03-03T17:48:46.175Z,53.24
2018-03-03T17:51:13.711Z,53.27
2018-03-03T17:53:40.868Z,53.26
2018-03-03T17:56:09.583Z,53.26
2018-03-03T17:58:37.804Z,53.26
2018-03-03T18:01:05.774Z,53.27
2018-03-03T18:03:33.675Z,53.27
2018-03-03T18:06:01.903Z,53.28
2018-03-03T18:08:30.520Z,53.27
2018-03-03T18:10:59.270Z,53.28
2018-03-03T18:13:26.395Z,53.29
2018-03-03T18:15:54.238Z,53.29
2018-03-03T18:18:21.742Z,53.29
2018-03-03T18:20:50.492Z,53.29
2018-03-03T18:23:17.754Z,53.31
2018-03-03T18:25:46.485Z,53.31
2018-03-03T18:28:14.811Z,53.32
2018-03-03T18:30:42.042Z,53.32
2018-03-03T18:33:09.918Z,53.33
2018-03-03T18:35:37.934Z,53.33
2018-03-03T18:38:05.374Z,53.33
2018-03-03T18:40:34.096Z,53.33
2018-03-03T18:43:02.919Z,53.34
2018-03-03T18:45:30.363Z,53.34
2018-03-03T18:47:58.344Z,53.34
2018-03-03T18:50:27.046Z,53.35
2018-03-03T18:52:54.203Z,53.36
2018-03-03T18:55:22.060Z,53.36
2018-03-03T18:57:50.327Z,53.34
2018-03-03T19:00:17.458Z,53.37
2018-03-03T19:02:44.707Z,53.36
2018-03-03T19:05:11.859Z,53.37
2018-03-03T19:07:39.238Z,53.38
2018-03-03T19:10:06.517Z,53.38
2018-03-03T19:12:35.418Z,53.37
2018-03-03T19:15:04.722Z,53.39
2018-03-03T19:17:32.935Z,53.39
2018-03-03T19:20:01.086Z,53.39
2018-03-03T19:22:30.501Z,53.39
2018-03-03T19:24:58.894Z,53.40
2018-03-03T19:27:26.467Z,53.39
2018-03-03T19:29:54.169Z,53.40
2018-03-03T19:32:22.702Z,53.38
2018-03-03T19:34:49.941Z,52.87
2018-03-03T19:37:17.986Z,52.91
2018-03-03T19:39:46.478Z,53.14
2018-03-03T19:42:14.564Z,53.24
2018-03-03T19:44:42.495Z,53.28
2018-03-03T19:47:11.387Z,53.31
2018-03-03T19:49:40.119Z,53.32
2018-03-03T19:52:07.685Z,53.32
2018-03-03T19:54:36.518Z,53.32
2018-03-03T19:57:05.423Z,53.31
2018-03-03T19:59:32.547Z,53.33
2018-03-03T20:01:59.790Z,53.33
2018-03-03T20:04:28.616Z,53.33
2018-03-03T20:06:55.900Z,53.35
2018-03-03T20:09:24.764Z,53.34
2018-03-03T20:11:52.823Z,53.32
2018-03-03T20:14:20.682Z,53.35
2018-03-03T20:16:47.917Z,53.35
2018-03-03T20:19:15.827Z,53.37
2018-03-03T20:21:44.009Z,53.35
2018-03-03T20:24:13.636Z,53.37
2018-03-03T20:26:43.150Z,53.38
2018-03-03T20:29:10.820Z,53.39
2018-03-03T20:31:38.356Z,53.42
2018-03-03T20:34:06.522Z,53.43
2018-03-03T20:36:34.677Z,53.44
2018-03-03T20:39:02.866Z,53.47
2018-03-03T20:41:30.066Z,53.45
2018-03-03T20:43:57.591Z,53.44
2018-03-03T20:46:24.967Z,53.41
2018-03-03T20:48:52.643Z,53.39
2018-03-03T20:51:20.580Z,53.37
2018-03-03T20:53:49.416Z,53.37
2018-03-03T20:56:16.960Z,53.35
2018-03-03T20:58:44.864Z,53.36
2018-03-03T21:01:13.669Z,53.35
2018-03-03T21:03:42.158Z,53.35
2018-03-03T21:06:10.603Z,53.34
2018-03-03T21:08:37.919Z,53.33
2018-03-03T21:11:07.742Z,53.35
2018-03-03T21:13:35.727Z,53.35
2018-03-03T21:16:03.687Z,53.35
2018-03-03T21:18:33.144Z,53.35
2018-03-03T21:21:01.207Z,53.35
2018-03-03T21:23:31.000Z,53.36
2018-03-03T21:25:59.284Z,53.36
2018-03-03T21:28:26.536Z,53.36
2018-03-03T21:30:54.570Z,53.36
2018-03-03T21:33:22.167Z,53.36
2018-03-03T21:35:51.148Z,53.36
2018-03-03T21:38:18.822Z,53.36
2018-03-03T21:40:46.136Z,53.38
2018-03-03T21:43:14.172Z,53.36
2018-03-03T21:45:42.460Z,53.37
2018-03-03T21:48:10.292Z,53.38
2018-03-03T21:50:38.589Z,53.38
2018-03-03T21:53:06.611Z,53.38
2018-03-03T21:55:34.800Z,53.39
2018-03-03T21:58:02.577Z,52.36
2018-03-03T22:00:31.348Z,52.43
2018-03-03T22:02:58.743Z,52.79
2018-03-03T22:22:27.011Z,53.44
2018-03-03T22:24:54.924Z,53.44
2018-03-03T22:27:22.766Z,53.44
2018-03-03T22:39:27.649Z,53.38
2018-03-03T22:41:56.388Z,53.39
2018-03-03T22:44:24.612Z,53.38
2018-03-03T22:46:52.096Z,53.37
